EJU38NA EGGD-EHAM
Flight info
| Callsign | EJU38NA |
|---|---|
| Flight time | 0h 55m |
| Altitude | 29000 |
| Route | YORQI L607 ALHAD P72 IPRIL M197 REDFA |
| Aircraft | A320/M-SDE2E3FGHIJ1RWXYZ/LB1 |
Departure
| Time | 2026-05-04 17:48 |
|---|---|
| Airport | Bristol Airport (EGGD) |
Arrival
| Time | 2026-05-04 18:44 |
|---|---|
| Airport | Amsterdam Airport Schiphol (EHAM) |
| Time | Latitude | Longitude | Altitude | Speed | Heading |
|---|---|---|---|---|---|
| 2026-05-04 17:26 | 51.38556 | -2.71083 | 623 ft | 0 kts | 356° |
| 2026-05-04 17:29 | 51.38560 | -2.71018 | 613 ft | 0 kts | 357° |
| 2026-05-04 17:38 | 51.38559 | -2.71018 | 626 ft | 2 kts | 357° |
| 2026-05-04 17:39 | 51.38526 | -2.71014 | 621 ft | 2 kts | 354° |
| 2026-05-04 17:39 | 51.38509 | -2.71011 | 623 ft | 2 kts | 354° |
| 2026-05-04 17:39 | 51.38492 | -2.71008 | 613 ft | 2 kts | 354° |
| 2026-05-04 17:40 | 51.38476 | -2.71000 | 624 ft | 2 kts | 292° |
| 2026-05-04 17:40 | 51.38474 | -2.70990 | 623 ft | 0 kts | 272° |
| 2026-05-04 17:42 | 51.38474 | -2.70992 | 613 ft | 1 kts | 272° |
| 2026-05-04 17:42 | 51.38473 | -2.71016 | 622 ft | 3 kts | 265° |
| 2026-05-04 17:42 | 51.38469 | -2.71055 | 617 ft | 4 kts | 259° |
| 2026-05-04 17:43 | 51.38463 | -2.71107 | 623 ft | 5 kts | 259° |
| 2026-05-04 17:43 | 51.38456 | -2.71173 | 620 ft | 7 kts | 261° |
| 2026-05-04 17:43 | 51.38453 | -2.71246 | 626 ft | 6 kts | 267° |
| 2026-05-04 17:43 | 51.38451 | -2.71306 | 616 ft | 5 kts | 268° |
| 2026-05-04 17:44 | 51.38449 | -2.71395 | 616 ft | 11 kts | 265° |
| 2026-05-04 17:44 | 51.38442 | -2.71541 | 616 ft | 16 kts | 265° |
| 2026-05-04 17:44 | 51.38434 | -2.71748 | 614 ft | 21 kts | 267° |
| 2026-05-04 17:44 | 51.38434 | -2.71998 | 619 ft | 23 kts | 270° |
| 2026-05-04 17:45 | 51.38424 | -2.72256 | 624 ft | 24 kts | 266° |
| 2026-05-04 17:45 | 51.38412 | -2.72524 | 615 ft | 25 kts | 266° |
| 2026-05-04 17:45 | 51.38401 | -2.72799 | 615 ft | 24 kts | 267° |
| 2026-05-04 17:45 | 51.38392 | -2.73034 | 616 ft | 19 kts | 265° |
| 2026-05-04 17:46 | 51.38385 | -2.73160 | 616 ft | 0 kts | 265° |
| 2026-05-04 17:46 | 51.38385 | -2.73174 | 626 ft | 6 kts | 265° |
| 2026-05-04 17:47 | 51.38372 | -2.73281 | 620 ft | 11 kts | 244° |
| 2026-05-04 17:47 | 51.38306 | -2.73341 | 616 ft | 13 kts | 185° |
| 2026-05-04 17:47 | 51.38229 | -2.73296 | 623 ft | 11 kts | 132° |
| 2026-05-04 17:47 | 51.38219 | -2.73152 | 620 ft | 25 kts | 86° |
| 2026-05-04 17:48 | 51.38248 | -2.72439 | 614 ft | 99 kts | 86° |
| 2026-05-04 17:48 | 51.38311 | -2.71023 | 621 ft | 153 kts | 84° |
| 2026-05-04 17:48 | 51.38385 | -2.69299 | 1166 ft | 154 kts | 86° |
| 2026-05-04 17:48 | 51.38435 | -2.67594 | 1869 ft | 153 kts | 86° |
| 2026-05-04 17:49 | 51.38483 | -2.65856 | 2332 ft | 164 kts | 86° |
| 2026-05-04 17:49 | 51.38538 | -2.63906 | 2563 ft | 187 kts | 86° |
| 2026-05-04 17:49 | 51.38602 | -2.61717 | 2941 ft | 202 kts | 86° |
| 2026-05-04 17:49 | 51.38670 | -2.59443 | 3476 ft | 206 kts | 86° |
| 2026-05-04 17:50 | 51.38820 | -2.57189 | 4003 ft | 208 kts | 70° |
| 2026-05-04 17:50 | 51.39704 | -2.55315 | 4327 ft | 225 kts | 38° |
| 2026-05-04 17:50 | 51.40888 | -2.53482 | 4633 ft | 250 kts | 56° |
| 2026-05-04 17:50 | 51.41671 | -2.50891 | 5206 ft | 265 kts | 69° |
| 2026-05-04 17:51 | 51.42259 | -2.48051 | 6016 ft | 271 kts | 72° |
| 2026-05-04 17:51 | 51.42832 | -2.45152 | 6844 ft | 275 kts | 71° |
| 2026-05-04 17:51 | 51.43459 | -2.42226 | 7663 ft | 280 kts | 70° |
| 2026-05-04 17:51 | 51.44150 | -2.39286 | 8460 ft | 284 kts | 68° |
| 2026-05-04 17:52 | 51.44896 | -2.36330 | 9233 ft | 289 kts | 67° |
| 2026-05-04 17:52 | 51.45687 | -2.33337 | 9991 ft | 294 kts | 66° |
| 2026-05-04 17:52 | 51.46518 | -2.30271 | 10467 ft | 310 kts | 66° |
| 2026-05-04 17:52 | 51.47416 | -2.26981 | 10765 ft | 331 kts | 66° |
| 2026-05-04 17:53 | 51.48335 | -2.23609 | 11383 ft | 338 kts | 66° |
| 2026-05-04 17:53 | 51.49277 | -2.20128 | 12088 ft | 342 kts | 69° |
| 2026-05-04 17:53 | 51.49937 | -2.16441 | 12797 ft | 345 kts | 81° |
| 2026-05-04 17:53 | 51.50101 | -2.12590 | 13491 ft | 348 kts | 93° |
| 2026-05-04 17:54 | 51.49854 | -2.08718 | 14167 ft | 351 kts | 98° |
| 2026-05-04 17:54 | 51.49569 | -2.04813 | 14826 ft | 354 kts | 97° |
| 2026-05-04 17:54 | 51.49287 | -2.00872 | 15477 ft | 357 kts | 97° |
| 2026-05-04 17:54 | 51.49006 | -1.96899 | 16120 ft | 360 kts | 97° |
| 2026-05-04 17:55 | 51.48729 | -1.92941 | 16718 ft | 363 kts | 97° |
| 2026-05-04 17:55 | 51.48443 | -1.88890 | 17316 ft | 367 kts | 97° |
| 2026-05-04 17:55 | 51.48151 | -1.84814 | 17904 ft | 370 kts | 97° |
| 2026-05-04 17:55 | 51.47852 | -1.80701 | 18488 ft | 373 kts | 97° |
| 2026-05-04 17:56 | 51.47546 | -1.76555 | 19044 ft | 376 kts | 98° |
| 2026-05-04 17:56 | 51.47236 | -1.72372 | 19575 ft | 379 kts | 98° |
| 2026-05-04 17:56 | 51.46919 | -1.68161 | 20100 ft | 383 kts | 100° |
| 2026-05-04 17:56 | 51.46397 | -1.63966 | 20612 ft | 386 kts | 104° |
| 2026-05-04 17:57 | 51.46324 | -1.63426 | 20677 ft | 386 kts | 104° |
| 2026-05-04 17:57 | 51.46075 | -1.61587 | 20895 ft | 388 kts | 104° |
| 2026-05-04 17:58 | 51.45602 | -1.58120 | 21302 ft | 390 kts | 104° |
| 2026-05-04 17:58 | 51.45017 | -1.53859 | 21801 ft | 394 kts | 104° |
| 2026-05-04 17:59 | 51.44424 | -1.49549 | 22294 ft | 397 kts | 104° |
| 2026-05-04 17:59 | 51.43829 | -1.45219 | 22775 ft | 400 kts | 105° |
| 2026-05-04 17:59 | 51.42630 | -1.36495 | 23691 ft | 407 kts | 105° |
| 2026-05-04 18:00 | 51.42018 | -1.32061 | 24133 ft | 410 kts | 105° |
| 2026-05-04 18:00 | 51.41395 | -1.27591 | 24567 ft | 412 kts | 105° |
| 2026-05-04 18:00 | 51.40773 | -1.23095 | 24998 ft | 415 kts | 104° |
| 2026-05-04 18:00 | 51.40472 | -1.18470 | 25417 ft | 421 kts | 93° |
| 2026-05-04 18:01 | 51.40707 | -1.13772 | 25823 ft | 426 kts | 82° |
| 2026-05-04 18:01 | 51.41490 | -1.09167 | 26206 ft | 431 kts | 71° |
| 2026-05-04 18:01 | 51.42754 | -1.04792 | 26576 ft | 435 kts | 65° |
| 2026-05-04 18:02 | 51.45437 | -0.96074 | 27301 ft | 438 kts | 66° |
| 2026-05-04 18:02 | 51.46757 | -0.91728 | 27653 ft | 440 kts | 66° |
| 2026-05-04 18:02 | 51.48099 | -0.87297 | 27984 ft | 442 kts | 66° |
| 2026-05-04 18:02 | 51.49443 | -0.82850 | 28312 ft | 444 kts | 66° |
| 2026-05-04 18:03 | 51.50792 | -0.78377 | 28638 ft | 446 kts | 66° |
| 2026-05-04 18:03 | 51.52148 | -0.73886 | 28933 ft | 448 kts | 66° |
| 2026-05-04 18:03 | 51.54818 | -0.65070 | 29026 ft | 426 kts | 66° |
| 2026-05-04 18:04 | 51.57370 | -0.56593 | 29027 ft | 419 kts | 66° |
| 2026-05-04 18:05 | 51.61128 | -0.44015 | 29025 ft | 415 kts | 66° |
| 2026-05-04 18:05 | 51.63613 | -0.35660 | 29027 ft | 413 kts | 66° |
| 2026-05-04 18:06 | 51.67292 | -0.23130 | 29023 ft | 411 kts | 71° |
| 2026-05-04 18:06 | 51.68926 | -0.14336 | 29023 ft | 409 kts | 77° |
| 2026-05-04 18:07 | 51.70314 | -0.05720 | 29020 ft | 409 kts | 78° |
| 2026-05-04 18:07 | 51.71668 | 0.03173 | 29016 ft | 408 kts | 78° |
| 2026-05-04 18:08 | 51.73018 | 0.12028 | 28995 ft | 410 kts | 78° |
| 2026-05-04 18:08 | 51.74403 | 0.20990 | 28993 ft | 413 kts | 77° |
| 2026-05-04 18:09 | 51.77164 | 0.38984 | 28997 ft | 415 kts | 78° |
| 2026-05-04 18:10 | 51.78539 | 0.48040 | 29005 ft | 416 kts | 78° |
| 2026-05-04 18:10 | 51.79900 | 0.57120 | 29006 ft | 416 kts | 78° |
| 2026-05-04 18:11 | 51.81248 | 0.66146 | 29008 ft | 416 kts | 78° |
| 2026-05-04 18:11 | 51.82639 | 0.75220 | 29009 ft | 416 kts | 78° |
| 2026-05-04 18:12 | 51.84067 | 0.84284 | 29007 ft | 416 kts | 77° |
| 2026-05-04 18:12 | 51.85695 | 0.93284 | 29010 ft | 417 kts | 75° |
| 2026-05-04 18:13 | 51.87392 | 1.02203 | 29012 ft | 417 kts | 75° |
| 2026-05-04 18:14 | 51.89868 | 1.15721 | 29014 ft | 418 kts | 76° |
| 2026-05-04 18:14 | 51.91481 | 1.24761 | 29011 ft | 418 kts | 76° |
| 2026-05-04 18:15 | 51.94680 | 1.42828 | 29011 ft | 419 kts | 76° |
| 2026-05-04 18:16 | 51.96288 | 1.51904 | 29010 ft | 419 kts | 77° |
| 2026-05-04 18:16 | 51.97881 | 1.60993 | 29008 ft | 419 kts | 77° |
| 2026-05-04 18:17 | 51.99459 | 1.70059 | 28755 ft | 411 kts | 77° |
| 2026-05-04 18:17 | 52.00190 | 1.74504 | 28497 ft | 405 kts | 78° |
| 2026-05-04 18:17 | 52.01539 | 1.83260 | 28014 ft | 400 kts | 79° |
| 2026-05-04 18:18 | 52.02199 | 1.87636 | 27761 ft | 399 kts | 79° |
| 2026-05-04 18:18 | 52.02857 | 1.92006 | 27512 ft | 398 kts | 78° |
| 2026-05-04 18:18 | 52.03518 | 1.96362 | 27261 ft | 396 kts | 78° |
| 2026-05-04 18:18 | 52.04181 | 2.00693 | 27012 ft | 395 kts | 78° |
| 2026-05-04 18:19 | 52.05507 | 2.09316 | 26512 ft | 392 kts | 78° |
| 2026-05-04 18:19 | 52.06170 | 2.13608 | 26261 ft | 391 kts | 78° |
| 2026-05-04 18:19 | 52.06829 | 2.17900 | 26008 ft | 390 kts | 78° |
| 2026-05-04 18:20 | 52.07468 | 2.22107 | 25763 ft | 388 kts | 78° |
| 2026-05-04 18:20 | 52.08106 | 2.26343 | 25500 ft | 384 kts | 77° |
| 2026-05-04 18:20 | 52.08737 | 2.30544 | 25074 ft | 381 kts | 77° |
| 2026-05-04 18:20 | 52.09363 | 2.34714 | 24610 ft | 379 kts | 77° |
| 2026-05-04 18:21 | 52.09984 | 2.38865 | 24146 ft | 377 kts | 77° |
| 2026-05-04 18:21 | 52.10605 | 2.43002 | 23679 ft | 376 kts | 77° |
| 2026-05-04 18:21 | 52.11256 | 2.47106 | 23216 ft | 374 kts | 72° |
| 2026-05-04 18:21 | 52.12273 | 2.50993 | 22784 ft | 372 kts | 60° |
| 2026-05-04 18:22 | 52.13573 | 2.54596 | 22430 ft | 368 kts | 59° |
| 2026-05-04 18:22 | 52.14854 | 2.58117 | 22077 ft | 365 kts | 59° |
| 2026-05-04 18:22 | 52.16138 | 2.61655 | 21716 ft | 362 kts | 59° |
| 2026-05-04 18:22 | 52.17410 | 2.65163 | 21360 ft | 359 kts | 59° |
| 2026-05-04 18:23 | 52.18677 | 2.68660 | 21006 ft | 357 kts | 59° |
| 2026-05-04 18:23 | 52.19930 | 2.72129 | 20651 ft | 355 kts | 59° |
| 2026-05-04 18:23 | 52.21185 | 2.75608 | 20307 ft | 352 kts | 59° |
| 2026-05-04 18:23 | 52.22421 | 2.79043 | 19955 ft | 350 kts | 59° |
| 2026-05-04 18:24 | 52.23624 | 2.82406 | 19614 ft | 348 kts | 60° |
| 2026-05-04 18:24 | 52.24839 | 2.85811 | 19267 ft | 345 kts | 60° |
| 2026-05-04 18:24 | 52.26045 | 2.89184 | 18927 ft | 343 kts | 60° |
| 2026-05-04 18:24 | 52.27249 | 2.92546 | 18585 ft | 341 kts | 60° |
| 2026-05-04 18:25 | 52.28440 | 2.95875 | 18246 ft | 339 kts | 60° |
| 2026-05-04 18:25 | 52.29626 | 2.99192 | 17910 ft | 337 kts | 60° |
| 2026-05-04 18:25 | 52.30801 | 3.02484 | 17583 ft | 335 kts | 60° |
| 2026-05-04 18:25 | 52.31969 | 3.05769 | 17251 ft | 333 kts | 60° |
| 2026-05-04 18:26 | 52.33127 | 3.09036 | 16921 ft | 331 kts | 60° |
| 2026-05-04 18:26 | 52.34263 | 3.12246 | 16594 ft | 330 kts | 60° |
| 2026-05-04 18:26 | 52.35410 | 3.15483 | 16273 ft | 328 kts | 60° |
| 2026-05-04 18:26 | 52.36552 | 3.18707 | 15950 ft | 327 kts | 60° |
| 2026-05-04 18:27 | 52.37688 | 3.21919 | 15633 ft | 325 kts | 60° |
| 2026-05-04 18:27 | 52.38815 | 3.25109 | 15320 ft | 323 kts | 60° |
| 2026-05-04 18:27 | 52.39938 | 3.28292 | 14989 ft | 322 kts | 60° |
| 2026-05-04 18:27 | 52.41052 | 3.31453 | 14672 ft | 320 kts | 60° |
| 2026-05-04 18:28 | 52.42162 | 3.34611 | 14354 ft | 319 kts | 60° |
| 2026-05-04 18:28 | 52.43250 | 3.37708 | 14042 ft | 317 kts | 60° |
| 2026-05-04 18:28 | 52.44335 | 3.40849 | 13728 ft | 316 kts | 63° |
| 2026-05-04 18:28 | 52.45101 | 3.44198 | 13413 ft | 314 kts | 76° |
| 2026-05-04 18:29 | 52.45601 | 3.47675 | 13104 ft | 313 kts | 77° |
| 2026-05-04 18:29 | 52.46097 | 3.51137 | 12793 ft | 311 kts | 77° |
| 2026-05-04 18:29 | 52.46591 | 3.54581 | 12485 ft | 309 kts | 77° |
| 2026-05-04 18:29 | 52.47080 | 3.58008 | 12183 ft | 308 kts | 77° |
| 2026-05-04 18:30 | 52.48050 | 3.64808 | 11566 ft | 305 kts | 77° |
| 2026-05-04 18:30 | 52.48526 | 3.68143 | 11264 ft | 303 kts | 77° |
| 2026-05-04 18:30 | 52.49002 | 3.71502 | 10967 ft | 302 kts | 77° |
| 2026-05-04 18:31 | 52.49473 | 3.74841 | 10653 ft | 300 kts | 77° |
| 2026-05-04 18:31 | 52.49943 | 3.78163 | 10368 ft | 298 kts | 77° |
| 2026-05-04 18:31 | 52.50411 | 3.81467 | 10083 ft | 296 kts | 77° |
| 2026-05-04 18:31 | 52.50873 | 3.84754 | 9780 ft | 295 kts | 77° |
| 2026-05-04 18:32 | 52.51332 | 3.88019 | 9506 ft | 291 kts | 77° |
| 2026-05-04 18:32 | 52.51778 | 3.91200 | 9389 ft | 280 kts | 77° |
| 2026-05-04 18:32 | 52.52050 | 3.94288 | 9248 ft | 269 kts | 92° |
| 2026-05-04 18:32 | 52.51710 | 3.97231 | 9085 ft | 259 kts | 112° |
| 2026-05-04 18:33 | 52.50826 | 3.99710 | 8862 ft | 254 kts | 131° |
| 2026-05-04 18:33 | 52.49614 | 4.01813 | 8602 ft | 253 kts | 134° |
| 2026-05-04 18:33 | 52.48400 | 4.03896 | 8340 ft | 252 kts | 134° |
| 2026-05-04 18:33 | 52.47198 | 4.05967 | 8069 ft | 251 kts | 134° |
| 2026-05-04 18:34 | 52.45996 | 4.08040 | 7803 ft | 250 kts | 133° |
| 2026-05-04 18:34 | 52.44803 | 4.10099 | 7539 ft | 249 kts | 133° |
| 2026-05-04 18:34 | 52.43614 | 4.12148 | 7284 ft | 247 kts | 133° |
| 2026-05-04 18:34 | 52.42430 | 4.14185 | 7018 ft | 247 kts | 133° |
| 2026-05-04 18:35 | 52.41252 | 4.16211 | 6757 ft | 245 kts | 133° |
| 2026-05-04 18:35 | 52.40093 | 4.18201 | 6501 ft | 244 kts | 133° |
| 2026-05-04 18:35 | 52.38925 | 4.20205 | 6244 ft | 243 kts | 133° |
| 2026-05-04 18:35 | 52.37755 | 4.22206 | 5979 ft | 242 kts | 133° |
| 2026-05-04 18:36 | 52.36593 | 4.24189 | 5730 ft | 241 kts | 133° |
| 2026-05-04 18:36 | 52.35435 | 4.26168 | 5483 ft | 240 kts | 133° |
| 2026-05-04 18:36 | 52.34281 | 4.28141 | 5222 ft | 240 kts | 133° |
| 2026-05-04 18:36 | 52.33129 | 4.30109 | 4969 ft | 239 kts | 133° |
| 2026-05-04 18:37 | 52.31985 | 4.32059 | 4718 ft | 238 kts | 133° |
| 2026-05-04 18:37 | 52.30837 | 4.34014 | 4465 ft | 238 kts | 132° |
| 2026-05-04 18:37 | 52.29717 | 4.35922 | 4267 ft | 232 kts | 132° |
| 2026-05-04 18:37 | 52.28604 | 4.37815 | 4195 ft | 231 kts | 132° |
| 2026-05-04 18:38 | 52.27504 | 4.39686 | 4098 ft | 223 kts | 132° |
| 2026-05-04 18:38 | 52.26444 | 4.41465 | 3994 ft | 213 kts | 136° |
| 2026-05-04 18:38 | 52.25251 | 4.42841 | 3797 ft | 210 kts | 146° |
| 2026-05-04 18:38 | 52.24431 | 4.43686 | 3609 ft | 210 kts | 146° |
| 2026-05-04 18:39 | 52.22788 | 4.45388 | 3252 ft | 209 kts | 143° |
| 2026-05-04 18:39 | 52.21801 | 4.47002 | 3029 ft | 200 kts | 121° |
| 2026-05-04 18:39 | 52.21250 | 4.49008 | 2818 ft | 189 kts | 103° |
| 2026-05-04 18:39 | 52.20902 | 4.50983 | 2751 ft | 173 kts | 95° |
| 2026-05-04 18:40 | 52.20961 | 4.52812 | 2676 ft | 152 kts | 71° |
| 2026-05-04 18:40 | 52.21405 | 4.54288 | 2621 ft | 142 kts | 55° |
| 2026-05-04 18:40 | 52.21928 | 4.55638 | 2501 ft | 139 kts | 56° |
| 2026-05-04 18:40 | 52.22443 | 4.56966 | 2349 ft | 138 kts | 56° |
| 2026-05-04 18:41 | 52.22945 | 4.58267 | 2187 ft | 137 kts | 56° |
| 2026-05-04 18:41 | 52.23451 | 4.59574 | 2006 ft | 136 kts | 56° |
| 2026-05-04 18:41 | 52.23956 | 4.60878 | 1828 ft | 136 kts | 56° |
| 2026-05-04 18:41 | 52.24459 | 4.62180 | 1647 ft | 135 kts | 56° |
| 2026-05-04 18:42 | 52.24963 | 4.63485 | 1463 ft | 135 kts | 56° |
| 2026-05-04 18:42 | 52.25458 | 4.64766 | 1287 ft | 134 kts | 56° |
| 2026-05-04 18:42 | 52.25956 | 4.66055 | 1107 ft | 134 kts | 56° |
| 2026-05-04 18:42 | 52.26450 | 4.67337 | 932 ft | 133 kts | 56° |
| 2026-05-04 18:43 | 52.26945 | 4.68620 | 753 ft | 133 kts | 56° |
| 2026-05-04 18:43 | 52.27439 | 4.69901 | 577 ft | 133 kts | 56° |
| 2026-05-04 18:43 | 52.27932 | 4.71180 | 398 ft | 134 kts | 55° |
| 2026-05-04 18:43 | 52.28428 | 4.72468 | 224 ft | 136 kts | 56° |
| 2026-05-04 18:44 | 52.28929 | 4.73778 | 46 ft | 136 kts | 56° |
| 2026-05-04 18:44 | 52.29095 | 4.74218 | 10 ft | 131 kts | 56° |
| 2026-05-04 18:44 | 52.29646 | 4.75634 | -1 ft | 25 kts | 58° |
| 2026-05-04 18:44 | 52.29805 | 4.75821 | -2 ft | 30 kts | 27° |
| 2026-05-04 18:45 | 52.29968 | 4.75959 | -1 ft | 20 kts | 31° |
| 2026-05-04 18:45 | 52.30053 | 4.76144 | -1 ft | 21 kts | 58° |
| 2026-05-04 18:45 | 52.30135 | 4.76355 | -1 ft | 23 kts | 57° |
| 2026-05-04 18:45 | 52.30224 | 4.76582 | -1 ft | 24 kts | 58° |
| 2026-05-04 18:46 | 52.30314 | 4.76823 | -1 ft | 25 kts | 59° |
| 2026-05-04 18:46 | 52.30405 | 4.77065 | -1 ft | 26 kts | 58° |
| 2026-05-04 18:46 | 52.30496 | 4.77304 | -1 ft | 24 kts | 57° |
| 2026-05-04 18:46 | 52.30586 | 4.77533 | -1 ft | 24 kts | 46° |
| 2026-05-04 18:47 | 52.30743 | 4.77596 | -1 ft | 24 kts | 2° |
| 2026-05-04 18:47 | 52.30854 | 4.77608 | -1 ft | 24 kts | 4° |
| 2026-05-04 18:47 | 52.31084 | 4.77630 | -1 ft | 25 kts | 3° |
| 2026-05-04 18:47 | 52.31259 | 4.77646 | -1 ft | 26 kts | 3° |
| 2026-05-04 18:48 | 52.31434 | 4.77646 | -1 ft | 25 kts | 344° |
| 2026-05-04 18:48 | 52.31529 | 4.77529 | -1 ft | 26 kts | 315° |
| 2026-05-04 18:48 | 52.31571 | 4.77169 | -1 ft | 26 kts | 266° |
| 2026-05-04 18:48 | 52.31564 | 4.76974 | -1 ft | 26 kts | 267° |
| 2026-05-04 18:49 | 52.31551 | 4.76574 | -1 ft | 26 kts | 266° |
| 2026-05-04 18:49 | 52.31544 | 4.76379 | -1 ft | 26 kts | 267° |
| 2026-05-04 18:49 | 52.31530 | 4.75977 | -1 ft | 27 kts | 266° |
| 2026-05-04 18:49 | 52.31520 | 4.75669 | -1 ft | 26 kts | 267° |
| 2026-05-04 18:50 | 52.31514 | 4.75525 | -1 ft | 13 kts | 265° |
| 2026-05-04 18:50 | 52.31422 | 4.75442 | -1 ft | 14 kts | 177° |
| 2026-05-04 18:50 | 52.31318 | 4.75453 | -1 ft | 16 kts | 175° |
| 2026-05-04 18:50 | 52.31205 | 4.75464 | -1 ft | 17 kts | 176° |
| 2026-05-04 18:51 | 52.31122 | 4.75429 | -1 ft | 10 kts | 232° |
| 2026-05-04 18:51 | 52.31090 | 4.75353 | -1 ft | 7 kts | 232° |
| 2026-05-04 18:51 | 52.31065 | 4.75352 | -1 ft | 6 kts | 163° |
| 2026-05-04 18:51 | 52.31023 | 4.75393 | -1 ft | 5 kts | 148° |
| 2026-05-04 18:52 | 52.31006 | 4.75408 | -1 ft | 2 kts | 149° |
| 2026-05-04 18:52 | 52.31003 | 4.75411 | -1 ft | 0 kts | 148° |